Portsmouth, Rhode Island
Current Conditions -  °F | °C
As of 4:53 AM on Sunday 26 Oct 2014 (Local Time) from KUUU Reporting Station
Broken Clouds Broken Clouds  
Wind Chill: 14°   Ceiling: 9500
Heat Index: 14°   Visibility: 10mi
Dew Point:   Wind: 6mph
Humidity: 64%   Direction: 300°WNW
Pressure: 29.46"   Gusts: NA
Location:  41.6°N, 71.25°W
Report Text: KUUU 260853Z AUTO 30005KT 10SM BKN095 14/07 A2946 RMK AO2 RAE31 SLP976 P0000 60000 T01390072 58013
Loading
Personal Weather Stations






























Interactive Weather Map
Tropical Storm Tracking
New forecast layout! Learn more

10-Day Weather Forecast

Advertisements
Track Severe Weather on mobile